createdAt,value
2023-01-01T00:01:25.497Z,1001.2
2023-01-01T00:04:13.575Z,1001.2
2023-01-01T00:07:01.372Z,1001.2
2023-01-01T00:09:48.819Z,1001.2
2023-01-01T00:13:08.923Z,1001.2
2023-01-01T00:15:59.036Z,1001.2
2023-01-01T00:18:50.055Z,1001.2
2023-01-01T00:21:38.045Z,1001.2
2023-01-01T00:24:25.506Z,1001.2
2023-01-01T00:27:12.818Z,1001.2
2023-01-01T00:30:00.194Z,1001.1
2023-01-01T00:32:55.168Z,1001.1
2023-01-01T00:35:43.801Z,1001
2023-01-01T00:38:31.168Z,1001.3
2023-01-01T00:41:18.582Z,1001.3
2023-01-01T00:44:06.281Z,1001.5
2023-01-01T00:46:53.758Z,1001.5
2023-01-01T00:49:41.093Z,1001.4
2023-01-01T00:52:28.633Z,1001.5
2023-01-01T00:55:16.586Z,1001.4
2023-01-01T00:58:03.993Z,1001.3
2023-01-01T01:00:51.736Z,1001.3
2023-01-01T01:03:39.847Z,1001.4
2023-01-01T01:06:27.353Z,1001.4
2023-01-01T01:09:14.834Z,1001.4
2023-01-01T01:12:17.613Z,1001.4
2023-01-01T01:15:06.630Z,1001.5
2023-01-01T01:17:55.650Z,1001.5
2023-01-01T01:20:42.955Z,1001.6
2023-01-01T01:23:35.918Z,1001.6
2023-01-01T01:26:23.449Z,1001.7
2023-01-01T01:29:13.451Z,1001.6
2023-01-01T01:32:01.000Z,1001.5
2023-01-01T01:34:48.795Z,1001.7
2023-01-01T01:37:36.265Z,1001.8
2023-01-01T01:40:23.678Z,1001.7
2023-01-01T01:43:11.271Z,1001.7
2023-01-01T01:46:07.408Z,1001.8
2023-01-01T01:48:59.094Z,1001.8
2023-01-01T01:51:50.132Z,1001.8
2023-01-01T01:54:38.752Z,1001.7
2023-01-01T01:57:27.269Z,1001.8
2023-01-01T02:00:15.495Z,1001.7
2023-01-01T02:03:04.442Z,1001.8
2023-01-01T02:05:54.794Z,1001.8
2023-01-01T02:08:43.466Z,1001.8
2023-01-01T02:11:31.071Z,1001.9
2023-01-01T02:14:18.670Z,1001.8
2023-01-01T02:17:06.249Z,1001.8
2023-01-01T02:19:59.230Z,1001.8
2023-01-01T02:23:06.957Z,1001.8
2023-01-01T02:26:34.495Z,1001.8
2023-01-01T02:29:32.035Z,1002
2023-01-01T02:32:27.445Z,1002
2023-01-01T02:35:20.470Z,1001.9
2023-01-01T02:38:19.894Z,1002
2023-01-01T02:41:13.811Z,1002
2023-01-01T02:44:07.022Z,1002
2023-01-01T02:46:56.270Z,1001.9
2023-01-01T02:49:53.545Z,1002
2023-01-01T02:52:46.075Z,1001.9
2023-01-01T02:55:46.264Z,1002
2023-01-01T02:58:44.126Z,1002
2023-01-01T03:02:09.772Z,1002.1
2023-01-01T03:05:07.370Z,1002.1
2023-01-01T03:08:04.870Z,1002.2
2023-01-01T03:10:59.177Z,1002.1
2023-01-01T03:13:52.514Z,1002.1
2023-01-01T03:16:46.304Z,1002.2
2023-01-01T03:19:39.427Z,1002.2
2023-01-01T03:22:28.270Z,1002.1
2023-01-01T03:25:18.209Z,1002.2
2023-01-01T03:28:08.967Z,1002.2
2023-01-01T03:30:59.833Z,1002
2023-01-01T03:33:47.785Z,1002.1
2023-01-01T03:36:42.491Z,1002.2
2023-01-01T03:39:34.224Z,1002.2
2023-01-01T03:42:26.748Z,1002.1
2023-01-01T03:45:19.841Z,1002.1
2023-01-01T03:48:13.061Z,1002.2
2023-01-01T03:51:00.893Z,1002.1
2023-01-01T03:53:55.034Z,1002.2
2023-01-01T03:56:49.249Z,1002.2
2023-01-01T03:59:43.489Z,1002.2
2023-01-01T04:02:38.699Z,1002.3
2023-01-01T04:05:32.326Z,1002.4
2023-01-01T04:08:23.811Z,1002.4
2023-01-01T04:11:11.183Z,1002.5
2023-01-01T04:14:34.677Z,1002.6
2023-01-01T04:17:23.966Z,1002.5
2023-01-01T04:20:11.394Z,1002.5
2023-01-01T04:22:59.800Z,1002.5
2023-01-01T04:25:47.594Z,1002.5
2023-01-01T04:28:34.830Z,1002.5
2023-01-01T04:31:22.175Z,1002.4
2023-01-01T04:34:09.472Z,1002.4
2023-01-01T04:36:57.091Z,1002.3
2023-01-01T04:39:44.429Z,1002.4
2023-01-01T04:42:32.015Z,1002.5
2023-01-01T04:45:19.834Z,1002.5
2023-01-01T04:48:07.255Z,1002.4
2023-01-01T04:50:54.691Z,1002.4
2023-01-01T04:53:44.400Z,1002.4
2023-01-01T04:56:31.848Z,1002.5
2023-01-01T04:59:19.351Z,1002.5
2023-01-01T05:02:06.723Z,1002.5
2023-01-01T05:04:54.718Z,1002.5
2023-01-01T05:07:42.039Z,1002.5
2023-01-01T05:10:30.224Z,1002.7
2023-01-01T05:13:17.534Z,1002.6
2023-01-01T05:16:04.935Z,1002.7
2023-01-01T05:18:55.026Z,1002.7
2023-01-01T05:21:43.014Z,1002.8
2023-01-01T05:24:31.159Z,1002.7
2023-01-01T05:27:21.071Z,1002.7
2023-01-01T05:30:08.455Z,1002.8
2023-01-01T05:32:56.686Z,1002.7
2023-01-01T05:35:43.882Z,1002.8
2023-01-01T05:38:31.435Z,1002.9
2023-01-01T05:41:18.915Z,1002.9
2023-01-01T05:44:07.681Z,1002.9
2023-01-01T05:46:56.312Z,1002.9
2023-01-01T05:49:43.668Z,1002.9
2023-01-01T05:52:31.038Z,1003
2023-01-01T05:55:18.449Z,1003.2
2023-01-01T05:58:05.819Z,1003.2
2023-01-01T06:00:53.157Z,1003.2
2023-01-01T06:03:41.034Z,1003.2
2023-01-01T06:06:30.623Z,1003.2
2023-01-01T06:09:18.392Z,1003.2
2023-01-01T06:12:05.711Z,1003.3
2023-01-01T06:14:54.214Z,1003.4
2023-01-01T06:17:41.631Z,1003.4
2023-01-01T06:20:28.975Z,1003.4
2023-01-01T06:23:16.519Z,1003.4
2023-01-01T06:26:04.726Z,1003.5
2023-01-01T06:28:54.211Z,1003.4
2023-01-01T06:31:42.780Z,1003.5
2023-01-01T06:34:30.287Z,1003.6
2023-01-01T06:37:17.740Z,1003.6
2023-01-01T06:40:05.292Z,1003.7
2023-01-01T06:42:54.036Z,1003.6
2023-01-01T06:45:41.471Z,1003.7
2023-01-01T06:48:28.881Z,1003.6
2023-01-01T06:51:18.196Z,1003.7
2023-01-01T06:54:07.371Z,1003.8
2023-01-01T06:56:56.066Z,1003.9
2023-01-01T06:59:43.408Z,1003.9
2023-01-01T07:02:30.901Z,1003.9
2023-01-01T07:05:18.502Z,1004
2023-01-01T07:08:06.199Z,1004
2023-01-01T07:10:53.570Z,1004.1
2023-01-01T07:13:42.173Z,1004.1
2023-01-01T07:16:29.566Z,1004.2
2023-01-01T07:19:17.010Z,1004.2
2023-01-01T07:22:04.349Z,1004.2
2023-01-01T07:24:55.161Z,1004.1
2023-01-01T07:27:42.512Z,1004.1
2023-01-01T07:30:29.984Z,1004.2
2023-01-01T07:33:17.331Z,1004.2
2023-01-01T07:36:06.234Z,1004.2
2023-01-01T07:38:54.278Z,1004.3
2023-01-01T07:41:41.566Z,1004.4
2023-01-01T07:44:29.125Z,1004.3
2023-01-01T07:47:16.512Z,1004.4
2023-01-01T07:50:07.041Z,1004.4
2023-01-01T07:53:01.904Z,1004.3
2023-01-01T07:55:49.555Z,1004.4
2023-01-01T07:58:37.423Z,1004.3
2023-01-01T08:01:25.383Z,1004.2
2023-01-01T08:04:12.826Z,1004.2
2023-01-01T08:07:00.162Z,1004.3
2023-01-01T08:09:47.778Z,1004.2
2023-01-01T08:12:35.033Z,1004.5
2023-01-01T08:15:22.452Z,1004.3
2023-01-01T08:18:09.772Z,1004.3
2023-01-01T08:20:57.183Z,1004.3
2023-01-01T08:23:44.713Z,1004.3
2023-01-01T08:26:32.508Z,1004.3
2023-01-01T08:29:21.676Z,1004.2
2023-01-01T08:32:09.161Z,1004.3
2023-01-01T08:34:57.488Z,1004.3
2023-01-01T08:37:44.785Z,1004.4
2023-01-01T08:40:32.220Z,1004.3
2023-01-01T08:43:21.208Z,1004.4
2023-01-01T08:46:08.545Z,1004.5
2023-01-01T08:48:56.040Z,1004.5
2023-01-01T08:51:43.341Z,1004.6
2023-01-01T08:54:30.746Z,1004.5
2023-01-01T08:57:18.060Z,1004.5
2023-01-01T09:00:05.544Z,1004.5
2023-01-01T09:02:54.523Z,1004.5
2023-01-01T09:05:42.070Z,1004.5
2023-01-01T09:08:30.527Z,1004.6
2023-01-01T09:11:18.372Z,1004.5
2023-01-01T09:14:09.026Z,1004.7
2023-01-01T09:16:56.383Z,1004.6
2023-01-01T09:19:44.170Z,1004.7
2023-01-01T09:22:31.497Z,1004.6
2023-01-01T09:25:19.046Z,1004.6
2023-01-01T09:28:07.024Z,1004.6
2023-01-01T09:30:57.315Z,1004.6
2023-01-01T09:33:45.878Z,1004.6
2023-01-01T09:36:33.762Z,1004.6
2023-01-01T09:39:21.337Z,1004.8
2023-01-01T09:42:08.642Z,1004.7
2023-01-01T09:45:11.176Z,1004.8
2023-01-01T09:48:06.345Z,1004.7
2023-01-01T09:50:58.532Z,1004.9
2023-01-01T09:53:49.651Z,1004.7
2023-01-01T09:56:43.804Z,1004.8
2023-01-01T09:59:31.778Z,1004.8
2023-01-01T10:02:19.642Z,1004.7
2023-01-01T10:05:25.859Z,1004.9
2023-01-01T10:08:23.454Z,1004.7
2023-01-01T10:11:23.534Z,1004.9
2023-01-01T10:14:17.946Z,1004.8
2023-01-01T10:17:11.499Z,1004.7
2023-01-01T10:20:03.662Z,1004.7
2023-01-01T10:23:02.279Z,1004.9
2023-01-01T10:25:57.339Z,1004.9
2023-01-01T10:28:51.937Z,1004.9
2023-01-01T10:31:47.372Z,1005
2023-01-01T10:34:35.597Z,1004.9
2023-01-01T10:37:22.981Z,1004.8
2023-01-01T10:40:15.000Z,1004.9
2023-01-01T10:43:05.015Z,1005.1
2023-01-01T10:45:56.932Z,1004.9
2023-01-01T10:48:46.964Z,1004.8
2023-01-01T10:51:51.523Z,1004.8
2023-01-01T10:54:39.966Z,1004.8
2023-01-01T10:57:27.494Z,1004.8
2023-01-01T11:00:22.459Z,1004.8
2023-01-01T11:03:12.431Z,1004.9
2023-01-01T11:06:05.797Z,1005
2023-01-01T11:09:06.394Z,1005
2023-01-01T11:12:24.618Z,1004.8
2023-01-01T11:15:26.393Z,1004.9
2023-01-01T11:18:22.587Z,1004.8
2023-01-01T11:21:20.091Z,1004.9
2023-01-01T11:24:09.299Z,1005
2023-01-01T11:27:04.432Z,1005
2023-01-01T11:30:05.975Z,1004.8
2023-01-01T11:33:06.359Z,1004.8
2023-01-01T11:36:01.807Z,1004.9
2023-01-01T11:38:50.820Z,1004.8
2023-01-01T11:41:53.196Z,1004.9
2023-01-01T11:44:42.683Z,1004.9
2023-01-01T11:47:33.244Z,1004.9
2023-01-01T11:50:23.188Z,1004.8
2023-01-01T11:53:15.224Z,1004.9
2023-01-01T11:56:11.768Z,1004.7
2023-01-01T11:59:02.395Z,1004.9
2023-01-01T12:01:58.882Z,1005
2023-01-01T12:04:49.977Z,1005
2023-01-01T12:07:44.551Z,1005.1
2023-01-01T12:10:33.055Z,1005.1
2023-01-01T12:13:30.934Z,1005.1
2023-01-01T12:16:27.302Z,1005.3
2023-01-01T12:19:26.768Z,1005.3
2023-01-01T12:22:21.256Z,1005.2
2023-01-01T12:25:08.981Z,1005.3
2023-01-01T12:27:59.186Z,1005.3
2023-01-01T12:30:56.947Z,1005.3
2023-01-01T12:33:54.302Z,1005.3
2023-01-01T12:36:54.673Z,1005.2
2023-01-01T12:39:49.300Z,1005.2
2023-01-01T12:43:14.102Z,1005.2
2023-01-01T12:46:09.097Z,1005.3
2023-01-01T12:49:13.902Z,1005.3
2023-01-01T12:52:32.063Z,1005.3
2023-01-01T12:55:31.791Z,1005.3
2023-01-01T12:58:38.597Z,1005.3
2023-01-01T13:01:33.315Z,1005.2
2023-01-01T13:04:23.895Z,1005.1
2023-01-01T13:07:12.176Z,1005.1
2023-01-01T13:10:03.311Z,1005.2
2023-01-01T13:13:03.986Z,1005.2
2023-01-01T13:15:52.643Z,1005.4
2023-01-01T13:18:41.534Z,1005.4
2023-01-01T13:21:35.024Z,1005.5
2023-01-01T13:24:22.533Z,1005.6
2023-01-01T13:27:11.928Z,1005.7
2023-01-01T13:30:57.498Z,1005.9
2023-01-01T13:33:45.005Z,1005.8
2023-01-01T13:37:17.500Z,1005.8
2023-01-01T13:40:15.028Z,1005.6
2023-01-01T13:43:35.730Z,1005.8
2023-01-01T13:46:23.304Z,1005.9
2023-01-01T13:49:18.319Z,1005.8
2023-01-01T13:52:18.654Z,1005.8
2023-01-01T13:55:29.428Z,1005.9
2023-01-01T13:58:48.064Z,1005.9
2023-01-01T14:01:51.189Z,1006
2023-01-01T14:04:46.901Z,1006
2023-01-01T14:07:51.704Z,1006
2023-01-01T14:10:40.824Z,1006.1
2023-01-01T14:13:35.458Z,1006.2
2023-01-01T14:16:25.889Z,1006.2
2023-01-01T14:19:16.414Z,1006.3
2023-01-01T14:22:04.304Z,1006.3
2023-01-01T14:24:53.285Z,1006.4
2023-01-01T14:27:41.967Z,1006.4
2023-01-01T14:30:29.995Z,1006.5
2023-01-01T14:33:18.550Z,1006.4
2023-01-01T14:36:09.343Z,1006.5
2023-01-01T14:39:07.731Z,1006.6
2023-01-01T14:42:09.903Z,1006.5
2023-01-01T14:45:01.082Z,1006.5
2023-01-01T14:47:49.568Z,1006.5
2023-01-01T14:50:40.263Z,1006.6
2023-01-01T14:53:34.088Z,1006.7
2023-01-01T14:56:21.502Z,1006.8
2023-01-01T14:59:11.774Z,1006.8
2023-01-01T15:02:07.826Z,1006.9
2023-01-01T15:05:00.164Z,1006.9
2023-01-01T15:08:12.345Z,1006.9
2023-01-01T15:11:09.019Z,1007
2023-01-01T15:13:56.467Z,1006.9
2023-01-01T15:16:46.166Z,1006.9
2023-01-01T15:19:45.403Z,1006.9
2023-01-01T15:22:45.801Z,1007
2023-01-01T15:25:33.985Z,1007
2023-01-01T15:28:23.013Z,1007.1
2023-01-01T15:31:10.403Z,1007.2
2023-01-01T15:33:58.207Z,1007.3
2023-01-01T15:36:45.655Z,1007.3
2023-01-01T15:39:33.582Z,1007.3
2023-01-01T15:42:31.224Z,1007.3
2023-01-01T15:45:20.685Z,1007.4
2023-01-01T15:48:12.328Z,1007.4
2023-01-01T15:51:06.502Z,1007.4
2023-01-01T15:54:00.310Z,1007.4
2023-01-01T15:56:49.519Z,1007.4
2023-01-01T15:59:37.819Z,1007.3
2023-01-01T16:02:28.843Z,1007.4
2023-01-01T16:05:20.939Z,1007.4
2023-01-01T16:08:10.394Z,1007.3
2023-01-01T16:10:57.817Z,1007.3
2023-01-01T16:13:45.312Z,1007.4
2023-01-01T16:16:32.778Z,1007.4
2023-01-01T16:19:22.696Z,1007.5
2023-01-01T16:22:10.451Z,1007.5
2023-01-01T16:25:00.673Z,1007.5
2023-01-01T16:27:57.095Z,1007.4
2023-01-01T16:30:44.759Z,1007.4
2023-01-01T16:33:32.630Z,1007.5
2023-01-01T16:36:20.304Z,1007.6
2023-01-01T16:39:08.408Z,1007.5
2023-01-01T16:41:56.147Z,1007.6
2023-01-01T16:44:43.913Z,1007.6
2023-01-01T16:47:31.332Z,1007.8
2023-01-01T16:50:18.724Z,1007.7
2023-01-01T16:53:06.553Z,1007.8
2023-01-01T16:55:53.983Z,1007.7
2023-01-01T16:58:50.041Z,1007.8
2023-01-01T17:01:40.280Z,1007.8
2023-01-01T17:04:29.384Z,1007.8
2023-01-01T17:07:16.777Z,1007.8
2023-01-01T17:10:04.485Z,1007.8
2023-01-01T17:12:53.193Z,1007.8
2023-01-01T17:15:46.471Z,1007.8
2023-01-01T17:19:13.907Z,1007.8
2023-01-01T17:22:02.116Z,1007.9
2023-01-01T17:24:50.204Z,1008
2023-01-01T17:27:37.936Z,1007.9
2023-01-01T17:30:25.379Z,1008.1
2023-01-01T17:33:12.889Z,1008
2023-01-01T17:36:00.237Z,1008.1
2023-01-01T17:38:47.739Z,1008
2023-01-01T17:41:35.151Z,1008
2023-01-01T17:44:22.871Z,1008
2023-01-01T17:47:10.279Z,1008.1
2023-01-01T17:49:57.701Z,1008.1
2023-01-01T17:52:45.230Z,1008.1
2023-01-01T17:55:32.795Z,1008.2
2023-01-01T17:58:20.036Z,1008.2
2023-01-01T18:01:08.071Z,1008.1
2023-01-01T18:04:10.959Z,1008.2
2023-01-01T18:07:02.515Z,1008.3
2023-01-01T18:09:53.421Z,1008.4
2023-01-01T18:12:40.677Z,1008.4
2023-01-01T18:15:28.035Z,1008.4
2023-01-01T18:18:15.453Z,1008.5
2023-01-01T18:21:02.896Z,1008.5
2023-01-01T18:23:53.114Z,1008.5
2023-01-01T18:26:42.087Z,1008.6
2023-01-01T18:29:29.833Z,1008.6
2023-01-01T18:32:17.170Z,1008.6
2023-01-01T18:35:04.511Z,1008.7
2023-01-01T18:37:53.280Z,1008.7
2023-01-01T18:40:41.630Z,1008.7
2023-01-01T18:43:35.371Z,1008.8
2023-01-01T18:46:22.771Z,1008.7
2023-01-01T18:49:10.177Z,1008.8
2023-01-01T18:51:57.513Z,1008.7
2023-01-01T18:54:57.671Z,1008.6
2023-01-01T18:57:55.957Z,1008.7
2023-01-01T19:00:47.039Z,1008.7
2023-01-01T19:03:40.949Z,1008.8
2023-01-01T19:06:31.109Z,1008.8
2023-01-01T19:09:18.913Z,1008.8
2023-01-01T19:12:08.118Z,1008.8
2023-01-01T19:15:00.682Z,1008.7
2023-01-01T19:17:59.147Z,1008.8
2023-01-01T19:20:46.573Z,1008.7
2023-01-01T19:23:38.168Z,1008.8
2023-01-01T19:26:32.247Z,1008.7
2023-01-01T19:29:24.593Z,1008.7
2023-01-01T19:32:15.056Z,1008.7
2023-01-01T19:35:03.160Z,1008.7
2023-01-01T19:37:51.694Z,1008.7
2023-01-01T19:40:39.767Z,1008.8
2023-01-01T19:43:27.294Z,1008.7
2023-01-01T19:46:14.735Z,1008.8
2023-01-01T19:49:02.293Z,1008.8
2023-01-01T19:51:49.620Z,1008.8
2023-01-01T19:54:36.963Z,1008.9
2023-01-01T19:57:24.252Z,1008.9
2023-01-01T20:00:11.545Z,1008.9
2023-01-01T20:03:25.827Z,1009
2023-01-01T20:06:21.938Z,1008.9
2023-01-01T20:09:10.675Z,1008.9
2023-01-01T20:11:58.075Z,1008.8
2023-01-01T20:14:45.410Z,1008.9
2023-01-01T20:17:32.833Z,1008.8
2023-01-01T20:20:20.718Z,1008.9
2023-01-01T20:23:08.134Z,1008.8
2023-01-01T20:25:55.637Z,1008.9
2023-01-01T20:28:43.074Z,1008.8
2023-01-01T20:32:02.308Z,1008.7
2023-01-01T20:34:51.047Z,1008.7
2023-01-01T20:37:39.349Z,1008.8
2023-01-01T20:40:26.820Z,1008.9
2023-01-01T20:43:14.238Z,1008.8
2023-01-01T20:46:01.660Z,1008.9
2023-01-01T20:48:49.187Z,1009
2023-01-01T20:51:36.879Z,1009
2023-01-01T20:54:24.207Z,1009.2
2023-01-01T20:57:11.734Z,1009.2
2023-01-01T20:59:59.308Z,1009.3
2023-01-01T21:02:46.951Z,1009.3
2023-01-01T21:05:34.558Z,1009.3
2023-01-01T21:08:21.876Z,1009.2
2023-01-01T21:11:09.347Z,1009.1
2023-01-01T21:13:56.771Z,1009.1
2023-01-01T21:16:44.567Z,1009.1
2023-01-01T21:19:31.990Z,1009.1
2023-01-01T21:22:19.539Z,1009.1
2023-01-01T21:25:40.906Z,1009.1
2023-01-01T21:28:37.067Z,1009.2
2023-01-01T21:31:24.552Z,1009.1
2023-01-01T21:34:21.523Z,1009.1
2023-01-01T21:37:17.183Z,1009.1
2023-01-01T21:40:41.272Z,1009.2
2023-01-01T21:43:36.423Z,1009.2
2023-01-01T21:46:26.829Z,1009.2
2023-01-01T21:49:19.056Z,1009.2
2023-01-01T21:52:14.188Z,1009.1
2023-01-01T21:55:07.144Z,1008.9
2023-01-01T21:58:07.718Z,1008.9
2023-01-01T22:01:33.911Z,1008.8
2023-01-01T22:04:23.611Z,1008.8
2023-01-01T22:10:43.894Z,1008.8
2023-01-01T22:13:31.246Z,1008.9
2023-01-01T22:16:18.691Z,1008.9
2023-01-01T22:19:13.081Z,1009
2023-01-01T22:22:02.932Z,1009
2023-01-01T22:24:58.556Z,1009
2023-01-01T22:27:48.992Z,1009
2023-01-01T22:30:36.327Z,1009
2023-01-01T22:33:26.255Z,1009.1
2023-01-01T22:36:21.664Z,1009.1
2023-01-01T22:39:11.576Z,1009
2023-01-01T22:42:04.787Z,1009
2023-01-01T22:44:58.264Z,1009.1
2023-01-01T22:47:45.662Z,1009.1
2023-01-01T22:50:33.594Z,1009
2023-01-01T22:53:21.456Z,1009.1
2023-01-01T22:56:08.806Z,1009
2023-01-01T22:58:57.624Z,1008.9
2023-01-01T23:01:45.226Z,1008.9
2023-01-01T23:04:32.683Z,1008.8
2023-01-01T23:07:20.100Z,1008.8
2023-01-01T23:10:07.472Z,1008.7
2023-01-01T23:12:57.585Z,1008.7
2023-01-01T23:18:44.579Z,1008.6
2023-01-01T23:21:31.907Z,1008.6
2023-01-01T23:24:21.005Z,1008.6
2023-01-01T23:27:09.209Z,1008.5
2023-01-01T23:29:59.548Z,1008.4
2023-01-01T23:32:48.637Z,1008.4
2023-01-01T23:35:36.026Z,1008.4
2023-01-01T23:38:23.706Z,1008.4
2023-01-01T23:41:13.097Z,1008.4
2023-01-01T23:44:00.542Z,1008.4
2023-01-01T23:46:48.073Z,1008.4
2023-01-01T23:49:35.759Z,1008.3
2023-01-01T23:52:23.948Z,1008.3
2023-01-01T23:55:11.522Z,1008.3
2023-01-01T23:57:58.896Z,1008.3
